createdAt,value
2023-05-19T00:00:50.051Z,2.30
2023-05-19T00:05:57.218Z,1.33
2023-05-19T00:10:59.169Z,2.13
2023-05-19T00:16:01.256Z,1.90
2023-05-19T00:21:03.034Z,1.92
2023-05-19T00:26:04.779Z,2.53
2023-05-19T00:31:06.944Z,1.40
2023-05-19T00:36:09.042Z,2.22
2023-05-19T00:41:11.051Z,2.70
2023-05-19T00:46:12.801Z,2.00
2023-05-19T00:51:16.818Z,2.95
2023-05-19T00:56:19.205Z,2.55
2023-05-19T01:01:21.823Z,3.15
2023-05-19T01:06:25.569Z,2.53
2023-05-19T01:11:27.693Z,1.80
2023-05-19T01:16:32.685Z,4.05
2023-05-19T01:21:48.885Z,2.67
2023-05-19T01:27:00.164Z,2.60
2023-05-19T01:32:04.875Z,3.60
2023-05-19T01:37:08.558Z,2.88
2023-05-19T01:42:11.093Z,3.10
2023-05-19T01:47:13.191Z,3.60
2023-05-19T01:52:14.861Z,2.85
2023-05-19T01:57:24.810Z,2.90
2023-05-19T02:03:00.836Z,3.05
2023-05-19T02:08:25.788Z,2.80
2023-05-19T02:18:33.376Z,3.05
2023-05-19T02:23:35.051Z,3.42
2023-05-19T02:28:36.803Z,3.20
2023-05-19T02:33:38.479Z,3.63
2023-05-19T02:38:40.549Z,3.70
2023-05-19T02:43:42.307Z,3.40
2023-05-19T02:48:44.096Z,3.55
2023-05-19T02:53:45.947Z,4.00
2023-05-19T02:58:47.736Z,3.67
2023-05-19T03:03:49.605Z,3.83
2023-05-19T03:08:51.421Z,2.72
2023-05-19T03:13:53.133Z,3.42
2023-05-19T03:18:56.005Z,3.10
2023-05-19T03:23:57.755Z,3.75
2023-05-19T03:28:59.998Z,2.78
2023-05-19T03:34:02.120Z,3.15
2023-05-19T03:39:04.110Z,2.20
2023-05-19T03:44:06.181Z,2.42
2023-05-19T03:49:08.017Z,3.88
2023-05-19T03:54:28.100Z,3.05
2023-05-19T03:59:29.876Z,4.07
2023-05-19T04:04:31.692Z,3.72
2023-05-19T04:09:35.355Z,3.63
2023-05-19T04:14:37.086Z,3.50
2023-05-19T04:19:38.795Z,3.13
2023-05-19T04:24:40.524Z,3.13
2023-05-19T04:29:42.639Z,2.50
2023-05-19T04:34:46.051Z,3.92
2023-05-19T04:39:54.785Z,2.33
2023-05-19T04:44:59.461Z,3.40
2023-05-19T04:50:04.876Z,3.85
2023-05-19T04:55:06.953Z,3.58
2023-05-19T05:00:12.794Z,4.18
2023-05-19T05:05:27.521Z,2.30
2023-05-19T05:10:29.311Z,3.20
2023-05-19T05:15:31.565Z,2.63
2023-05-19T05:20:36.228Z,3.72
2023-05-19T05:25:38.528Z,3.28
2023-05-19T05:30:41.474Z,3.00
2023-05-19T05:35:43.294Z,2.65
2023-05-19T05:40:47.423Z,3.17
2023-05-19T05:45:49.396Z,3.35
2023-05-19T05:50:52.348Z,3.28
2023-05-19T05:55:58.556Z,2.78
2023-05-19T06:01:10.601Z,2.58
2023-05-19T06:11:15.168Z,2.88
2023-05-19T06:16:17.067Z,3.17
2023-05-19T06:21:21.907Z,3.10
2023-05-19T06:26:23.725Z,2.30
2023-05-19T06:31:26.599Z,2.83
2023-05-19T06:36:31.463Z,2.40
2023-05-19T06:41:34.749Z,3.28
2023-05-19T06:46:36.916Z,2.42
2023-05-19T06:51:39.411Z,2.17
2023-05-19T06:56:41.140Z,1.75
2023-05-19T07:01:42.894Z,1.88
2023-05-19T07:06:45.054Z,2.80
2023-05-19T07:11:47.008Z,2.08
2023-05-19T07:16:48.914Z,3.10
2023-05-19T07:21:52.001Z,3.10
2023-05-19T07:26:53.822Z,3.15
2023-05-19T07:31:57.969Z,2.90
2023-05-19T07:37:00.252Z,2.55
2023-05-19T07:42:02.193Z,3.47
2023-05-19T07:47:03.997Z,2.00
2023-05-19T07:52:06.233Z,3.17
2023-05-19T07:57:07.910Z,3.17
2023-05-19T08:02:09.626Z,2.22
2023-05-19T08:07:11.372Z,2.30
2023-05-19T08:12:13.062Z,2.53
2023-05-19T08:17:14.761Z,2.10
2023-05-19T08:22:16.611Z,2.88
2023-05-19T08:27:18.332Z,1.75
2023-05-19T08:32:20.020Z,2.97
2023-05-19T08:37:21.727Z,2.70
2023-05-19T08:42:23.490Z,2.97
2023-05-19T08:47:25.423Z,1.73
2023-05-19T08:58:11.757Z,3.05
2023-05-19T09:03:18.532Z,3.05
2023-05-19T09:08:24.677Z,2.60
2023-05-19T09:13:26.709Z,2.00
2023-05-19T09:18:28.403Z,2.88
2023-05-19T09:23:32.631Z,2.70
2023-05-19T09:28:36.836Z,2.30
2023-05-19T09:33:42.871Z,2.10
2023-05-19T09:38:46.258Z,1.23
2023-05-19T09:43:54.946Z,2.60
2023-05-19T09:49:00.354Z,1.73
2023-05-19T09:54:02.116Z,1.30
2023-05-19T09:59:04.005Z,1.50
2023-05-19T10:04:06.176Z,1.25
2023-05-19T10:09:08.282Z,1.83
2023-05-19T10:14:10.193Z,1.73
2023-05-19T10:19:13.098Z,1.67
2023-05-19T10:24:14.812Z,1.33
2023-05-19T10:29:20.173Z,1.40
2023-05-19T10:35:01.937Z,2.65
2023-05-19T10:40:13.766Z,2.30
2023-05-19T10:45:19.547Z,1.55
2023-05-19T10:55:46.475Z,1.60
2023-05-19T11:00:48.114Z,2.67
2023-05-19T11:05:52.257Z,1.90
2023-05-19T11:10:53.938Z,1.20
2023-05-19T11:15:56.296Z,1.77
2023-05-19T11:21:02.328Z,1.70
2023-05-19T11:26:04.289Z,2.05
2023-05-19T11:31:08.154Z,2.70
2023-05-19T11:36:10.148Z,1.92
2023-05-19T11:41:11.822Z,2.17
2023-05-19T11:46:14.350Z,2.35
2023-05-19T11:51:16.452Z,2.10
2023-05-19T11:56:18.188Z,2.20
2023-05-19T12:01:25.732Z,1.85
2023-05-19T12:06:28.227Z,2.33
2023-05-19T12:11:31.771Z,2.40
2023-05-19T12:16:35.378Z,2.80
2023-05-19T12:21:37.330Z,1.38
2023-05-19T12:26:39.113Z,2.22
2023-05-19T12:31:41.409Z,1.42
2023-05-19T12:36:43.140Z,1.60
2023-05-19T12:41:45.659Z,2.22
2023-05-19T12:46:47.683Z,2.63
2023-05-19T12:51:55.591Z,2.75
2023-05-19T12:56:57.837Z,2.60
2023-05-19T13:01:59.671Z,2.92
2023-05-19T13:07:01.772Z,2.55
2023-05-19T13:12:04.857Z,2.72
2023-05-19T13:17:06.605Z,2.50
2023-05-19T13:22:08.377Z,2.03
2023-05-19T13:27:10.077Z,2.00
2023-05-19T13:32:11.751Z,3.28
2023-05-19T13:37:13.574Z,2.00
2023-05-19T13:42:16.419Z,2.03
2023-05-19T13:47:18.470Z,2.40
2023-05-19T13:52:21.251Z,3.80
2023-05-19T13:57:26.468Z,2.55
2023-05-19T14:02:28.466Z,2.25
2023-05-19T14:07:30.645Z,2.45
2023-05-19T14:12:41.365Z,2.95
2023-05-19T14:17:53.850Z,2.95
2023-05-19T14:22:55.796Z,2.60
2023-05-19T14:27:57.453Z,2.97
2023-05-19T14:32:59.232Z,3.85
2023-05-19T14:38:01.054Z,2.65
2023-05-19T14:43:02.849Z,3.55
2023-05-19T14:48:05.766Z,3.58
2023-05-19T14:53:07.585Z,4.10
2023-05-19T14:58:23.515Z,4.18
2023-05-19T15:03:29.091Z,3.97
2023-05-19T15:08:30.866Z,3.17
2023-05-19T15:13:32.626Z,3.90
2023-05-19T15:18:34.502Z,2.63
2023-05-19T15:23:36.365Z,3.25
2023-05-19T15:28:38.028Z,3.70
2023-05-19T15:33:39.707Z,3.53
2023-05-19T15:38:41.413Z,3.90
2023-05-19T15:43:46.192Z,3.55
2023-05-19T15:48:48.069Z,3.90
2023-05-19T15:53:49.736Z,4.10
2023-05-19T15:58:51.468Z,3.40
2023-05-19T16:03:53.374Z,4.28
2023-05-19T16:08:55.448Z,3.33
2023-05-19T16:13:57.246Z,4.72
2023-05-19T16:18:58.974Z,4.47
2023-05-19T16:24:00.736Z,3.30
2023-05-19T16:29:02.476Z,4.30
2023-05-19T16:34:04.250Z,3.85
2023-05-19T16:39:05.952Z,4.03
2023-05-19T16:44:07.718Z,2.92
2023-05-19T16:49:11.206Z,3.45
2023-05-19T16:54:12.935Z,3.90
2023-05-19T16:59:14.676Z,3.78
2023-05-19T17:04:16.384Z,4.20
2023-05-19T17:09:18.183Z,2.90
2023-05-19T17:14:20.024Z,3.75
2023-05-19T17:19:21.878Z,3.92
2023-05-19T17:24:23.643Z,3.78
2023-05-19T17:29:27.742Z,4.15
2023-05-19T17:34:30.090Z,4.05
2023-05-19T17:39:31.764Z,3.65
2023-05-19T17:44:33.739Z,3.92
2023-05-19T17:49:35.727Z,2.83
2023-05-19T17:54:37.715Z,4.40
2023-05-19T17:59:39.608Z,4.82
2023-05-19T18:04:41.911Z,3.83
2023-05-19T18:09:48.039Z,3.67
2023-05-19T18:14:50.181Z,4.07
2023-05-19T18:19:51.927Z,3.08
2023-05-19T18:24:53.731Z,4.25
2023-05-19T18:29:55.559Z,4.75
2023-05-19T18:34:57.247Z,3.85
2023-05-19T18:40:00.063Z,4.93
2023-05-19T18:45:01.766Z,4.50
2023-05-19T18:50:04.330Z,4.88
2023-05-19T18:55:07.178Z,5.70
2023-05-19T19:00:09.338Z,5.25
2023-05-19T19:05:11.163Z,4.57
2023-05-19T19:10:12.874Z,4.90
2023-05-19T19:15:14.570Z,6.72
2023-05-19T19:20:16.359Z,6.47
2023-05-19T19:25:18.134Z,6.32
2023-05-19T19:30:19.918Z,5.13
2023-05-19T19:35:21.877Z,6.18
2023-05-19T19:40:24.901Z,6.65
2023-05-19T19:45:26.565Z,6.72
2023-05-19T19:50:28.523Z,7.50
2023-05-19T19:55:30.908Z,7.22
2023-05-19T20:00:32.697Z,7.50
2023-05-19T20:05:34.620Z,7.22
2023-05-19T20:10:36.392Z,7.68
2023-05-19T20:15:38.983Z,7.82
2023-05-19T20:20:41.352Z,6.95
2023-05-19T20:25:54.743Z,6.57
2023-05-19T20:31:05.129Z,7.28
2023-05-19T20:36:07.633Z,6.93
2023-05-19T20:41:09.373Z,7.88
2023-05-19T20:46:11.227Z,9.10
2023-05-19T20:51:13.427Z,8.70
2023-05-19T20:56:15.167Z,8.35
2023-05-19T21:01:17.264Z,8.50
2023-05-19T21:06:19.039Z,7.32
2023-05-19T21:11:21.159Z,9.18
2023-05-19T21:16:23.246Z,9.00
2023-05-19T21:21:25.273Z,8.25
2023-05-19T21:26:27.176Z,7.40
2023-05-19T21:31:28.971Z,8.77
2023-05-19T21:36:31.811Z,7.45
2023-05-19T21:41:33.525Z,9.10
2023-05-19T21:46:35.281Z,8.70
2023-05-19T21:51:37.076Z,9.27
2023-05-19T21:56:38.785Z,10.05
2023-05-19T22:01:40.806Z,8.75
2023-05-19T22:06:42.809Z,7.78
2023-05-19T22:11:44.440Z,6.50
2023-05-19T22:16:47.468Z,8.20
2023-05-19T22:21:50.385Z,8.82
2023-05-19T22:26:55.472Z,7.80
2023-05-19T22:31:57.093Z,9.13
2023-05-19T22:36:58.752Z,9.15
2023-05-19T22:42:00.482Z,9.40
2023-05-19T22:47:02.204Z,8.88
2023-05-19T22:52:04.065Z,9.55
2023-05-19T22:57:06.473Z,9.00
2023-05-19T23:02:08.334Z,9.25
2023-05-19T23:07:10.085Z,9.70
2023-05-19T23:12:11.788Z,8.65
2023-05-19T23:17:13.657Z,8.77
2023-05-19T23:22:15.747Z,9.40
2023-05-19T23:27:17.434Z,9.70
2023-05-19T23:32:19.147Z,9.73
2023-05-19T23:37:21.226Z,9.07
2023-05-19T23:42:22.912Z,11.73
2023-05-19T23:47:24.644Z,10.63
2023-05-19T23:52:26.393Z,11.25
2023-05-19T23:57:28.043Z,12.70
